sensor_id;sensor_type;location;lat;lon;timestamp;temperature;humidity
39751;DHT22;37579;51.074;17.004;2022-07-29T00:01:55;25.60;41.10
39751;DHT22;37579;51.074;17.004;2022-07-29T00:04:21;25.60;41.10
39751;DHT22;37579;51.074;17.004;2022-07-29T00:06:47;25.60;41.10
39751;DHT22;37579;51.074;17.004;2022-07-29T00:09:13;25.60;41.20
39751;DHT22;37579;51.074;17.004;2022-07-29T00:11:38;25.60;41.20
39751;DHT22;37579;51.074;17.004;2022-07-29T00:14:04;25.60;41.30
39751;DHT22;37579;51.074;17.004;2022-07-29T00:16:30;25.60;41.30
39751;DHT22;37579;51.074;17.004;2022-07-29T00:18:56;25.60;41.40
39751;DHT22;37579;51.074;17.004;2022-07-29T00:21:22;25.60;41.50
39751;DHT22;37579;51.074;17.004;2022-07-29T00:23:47;25.60;41.50
39751;DHT22;37579;51.074;17.004;2022-07-29T00:26:13;25.60;41.60
39751;DHT22;37579;51.074;17.004;2022-07-29T00:28:39;25.60;41.60
39751;DHT22;37579;51.074;17.004;2022-07-29T00:31:04;25.60;41.60
39751;DHT22;37579;51.074;17.004;2022-07-29T00:33:30;25.60;41.80
39751;DHT22;37579;51.074;17.004;2022-07-29T00:35:56;25.60;41.80
39751;DHT22;37579;51.074;17.004;2022-07-29T00:38:22;25.60;41.80
39751;DHT22;37579;51.074;17.004;2022-07-29T00:40:48;25.60;41.90
39751;DHT22;37579;51.074;17.004;2022-07-29T00:43:14;25.60;41.90
39751;DHT22;37579;51.074;17.004;2022-07-29T00:45:41;25.60;41.90
39751;DHT22;37579;51.074;17.004;2022-07-29T00:48:07;25.60;42.00
39751;DHT22;37579;51.074;17.004;2022-07-29T00:50:34;25.60;42.00
39751;DHT22;37579;51.074;17.004;2022-07-29T00:53:00;25.60;42.10
39751;DHT22;37579;51.074;17.004;2022-07-29T00:55:26;25.60;42.10
39751;DHT22;37579;51.074;17.004;2022-07-29T00:57:52;25.60;42.10
39751;DHT22;37579;51.074;17.004;2022-07-29T01:00:24;25.60;42.10
39751;DHT22;37579;51.074;17.004;2022-07-29T01:02:51;25.60;42.20
39751;DHT22;37579;51.074;17.004;2022-07-29T01:05:19;25.60;42.20
39751;DHT22;37579;51.074;17.004;2022-07-29T01:07:46;25.60;42.30
39751;DHT22;37579;51.074;17.004;2022-07-29T01:10:15;25.60;42.30
39751;DHT22;37579;51.074;17.004;2022-07-29T01:12:43;25.60;43.00
39751;DHT22;37579;51.074;17.004;2022-07-29T01:15:09;25.60;42.30
39751;DHT22;37579;51.074;17.004;2022-07-29T01:17:44;25.60;42.40
39751;DHT22;37579;51.074;17.004;2022-07-29T01:20:20;25.60;42.40
39751;DHT22;37579;51.074;17.004;2022-07-29T01:34:25;25.60;42.50
39751;DHT22;37579;51.074;17.004;2022-07-29T01:39:37;25.60;42.60
39751;DHT22;37579;51.074;17.004;2022-07-29T01:45:37;25.60;42.70
39751;DHT22;37579;51.074;17.004;2022-07-29T01:48:06;25.60;42.80
39751;DHT22;37579;51.074;17.004;2022-07-29T01:50:40;25.60;42.70
39751;DHT22;37579;51.074;17.004;2022-07-29T01:53:12;25.60;42.80
39751;DHT22;37579;51.074;17.004;2022-07-29T01:55:43;25.60;42.80
39751;DHT22;37579;51.074;17.004;2022-07-29T01:58:11;25.60;42.90
39751;DHT22;37579;51.074;17.004;2022-07-29T02:00:38;25.60;42.90
39751;DHT22;37579;51.074;17.004;2022-07-29T02:03:11;25.60;42.90
39751;DHT22;37579;51.074;17.004;2022-07-29T02:05:39;25.60;43.00
39751;DHT22;37579;51.074;17.004;2022-07-29T02:08:06;25.60;42.90
39751;DHT22;37579;51.074;17.004;2022-07-29T02:10:33;25.60;43.00
39751;DHT22;37579;51.074;17.004;2022-07-29T02:13:01;25.60;43.00
39751;DHT22;37579;51.074;17.004;2022-07-29T02:15:30;25.60;43.00
39751;DHT22;37579;51.074;17.004;2022-07-29T02:18:11;25.60;43.00
39751;DHT22;37579;51.074;17.004;2022-07-29T02:20:39;25.60;43.10
39751;DHT22;37579;51.074;17.004;2022-07-29T02:23:06;25.60;43.20
39751;DHT22;37579;51.074;17.004;2022-07-29T02:25:34;25.60;43.20
39751;DHT22;37579;51.074;17.004;2022-07-29T02:28:00;25.50;43.10
39751;DHT22;37579;51.074;17.004;2022-07-29T02:30:29;25.60;43.20
39751;DHT22;37579;51.074;17.004;2022-07-29T02:32:56;25.60;43.20
39751;DHT22;37579;51.074;17.004;2022-07-29T02:35:23;25.60;43.30
39751;DHT22;37579;51.074;17.004;2022-07-29T02:37:51;25.50;43.20
39751;DHT22;37579;51.074;17.004;2022-07-29T02:40:38;25.50;43.30
39751;DHT22;37579;51.074;17.004;2022-07-29T02:43:06;25.60;43.40
39751;DHT22;37579;51.074;17.004;2022-07-29T02:45:33;25.60;43.40
39751;DHT22;37579;51.074;17.004;2022-07-29T02:48:00;25.60;43.40
39751;DHT22;37579;51.074;17.004;2022-07-29T02:50:33;25.60;43.30
39751;DHT22;37579;51.074;17.004;2022-07-29T02:53:08;25.60;43.40
39751;DHT22;37579;51.074;17.004;2022-07-29T02:55:51;25.60;43.50
39751;DHT22;37579;51.074;17.004;2022-07-29T03:00:49;25.60;43.50
39751;DHT22;37579;51.074;17.004;2022-07-29T03:03:18;25.50;43.40
39751;DHT22;37579;51.074;17.004;2022-07-29T03:05:44;25.60;43.50
39751;DHT22;37579;51.074;17.004;2022-07-29T03:08:11;25.50;43.50
39751;DHT22;37579;51.074;17.004;2022-07-29T03:10:38;25.50;43.60
39751;DHT22;37579;51.074;17.004;2022-07-29T03:13:05;25.50;43.60
39751;DHT22;37579;51.074;17.004;2022-07-29T03:15:31;25.50;43.60
39751;DHT22;37579;51.074;17.004;2022-07-29T03:17:58;25.50;43.60
39751;DHT22;37579;51.074;17.004;2022-07-29T03:20:24;25.60;43.70
39751;DHT22;37579;51.074;17.004;2022-07-29T03:22:50;25.50;43.60
39751;DHT22;37579;51.074;17.004;2022-07-29T03:25:18;25.60;43.80
39751;DHT22;37579;51.074;17.004;2022-07-29T03:27:44;25.50;43.70
39751;DHT22;37579;51.074;17.004;2022-07-29T03:30:11;25.50;43.80
39751;DHT22;37579;51.074;17.004;2022-07-29T03:32:37;25.50;43.70
39751;DHT22;37579;51.074;17.004;2022-07-29T03:35:04;25.50;43.90
39751;DHT22;37579;51.074;17.004;2022-07-29T03:37:31;25.50;43.90
39751;DHT22;37579;51.074;17.004;2022-07-29T03:39:57;25.50;43.80
39751;DHT22;37579;51.074;17.004;2022-07-29T03:42:25;25.50;43.80
39751;DHT22;37579;51.074;17.004;2022-07-29T03:44:53;25.50;43.80
39751;DHT22;37579;51.074;17.004;2022-07-29T03:47:23;25.60;43.80
39751;DHT22;37579;51.074;17.004;2022-07-29T03:49:54;25.50;43.80
39751;DHT22;37579;51.074;17.004;2022-07-29T03:52:22;25.60;43.90
39751;DHT22;37579;51.074;17.004;2022-07-29T03:54:48;25.60;43.90
39751;DHT22;37579;51.074;17.004;2022-07-29T03:57:16;25.60;43.90
39751;DHT22;37579;51.074;17.004;2022-07-29T03:59:44;25.60;44.00
39751;DHT22;37579;51.074;17.004;2022-07-29T04:02:11;25.60;44.00
39751;DHT22;37579;51.074;17.004;2022-07-29T04:04:37;25.60;44.10
39751;DHT22;37579;51.074;17.004;2022-07-29T04:07:04;25.60;44.10
39751;DHT22;37579;51.074;17.004;2022-07-29T04:09:30;25.60;44.20
39751;DHT22;37579;51.074;17.004;2022-07-29T04:11:56;25.60;44.20
39751;DHT22;37579;51.074;17.004;2022-07-29T04:14:21;25.60;44.30
39751;DHT22;37579;51.074;17.004;2022-07-29T04:16:47;25.60;44.30
39751;DHT22;37579;51.074;17.004;2022-07-29T04:19:13;25.60;45.00
39751;DHT22;37579;51.074;17.004;2022-07-29T04:21:40;25.60;45.10
39751;DHT22;37579;51.074;17.004;2022-07-29T04:24:06;25.70;44.60
39751;DHT22;37579;51.074;17.004;2022-07-29T04:26:32;25.60;44.40
39751;DHT22;37579;51.074;17.004;2022-07-29T04:28:58;25.70;44.70
39751;DHT22;37579;51.074;17.004;2022-07-29T04:31:23;25.70;45.00
39751;DHT22;37579;51.074;17.004;2022-07-29T04:33:49;25.70;45.00
39751;DHT22;37579;51.074;17.004;2022-07-29T04:36:15;25.70;45.10
39751;DHT22;37579;51.074;17.004;2022-07-29T04:38:41;25.70;45.10
39751;DHT22;37579;51.074;17.004;2022-07-29T04:41:06;25.70;45.10
39751;DHT22;37579;51.074;17.004;2022-07-29T04:43:34;25.80;45.10
39751;DHT22;37579;51.074;17.004;2022-07-29T04:46:00;25.80;45.10
39751;DHT22;37579;51.074;17.004;2022-07-29T04:48:26;25.80;45.10
39751;DHT22;37579;51.074;17.004;2022-07-29T04:50:52;25.80;45.00
39751;DHT22;37579;51.074;17.004;2022-07-29T04:53:18;25.80;45.10
39751;DHT22;37579;51.074;17.004;2022-07-29T04:55:44;25.80;45.10
39751;DHT22;37579;51.074;17.004;2022-07-29T04:58:10;25.80;45.20
39751;DHT22;37579;51.074;17.004;2022-07-29T05:00:36;25.80;45.30
39751;DHT22;37579;51.074;17.004;2022-07-29T05:03:03;25.80;45.40
39751;DHT22;37579;51.074;17.004;2022-07-29T05:05:29;25.90;45.40
39751;DHT22;37579;51.074;17.004;2022-07-29T05:07:55;25.80;45.50
39751;DHT22;37579;51.074;17.004;2022-07-29T05:10:21;25.80;45.50
39751;DHT22;37579;51.074;17.004;2022-07-29T05:12:47;25.80;45.50
39751;DHT22;37579;51.074;17.004;2022-07-29T05:15:14;25.80;45.50
39751;DHT22;37579;51.074;17.004;2022-07-29T05:17:39;25.90;45.60
39751;DHT22;37579;51.074;17.004;2022-07-29T05:20:06;25.80;45.50
39751;DHT22;37579;51.074;17.004;2022-07-29T05:22:32;25.80;45.50
39751;DHT22;37579;51.074;17.004;2022-07-29T05:24:58;25.80;45.50
39751;DHT22;37579;51.074;17.004;2022-07-29T05:27:24;25.80;45.50
39751;DHT22;37579;51.074;17.004;2022-07-29T05:29:50;25.80;45.70
39751;DHT22;37579;51.074;17.004;2022-07-29T05:32:16;25.80;45.60
39751;DHT22;37579;51.074;17.004;2022-07-29T05:34:42;25.80;45.50
39751;DHT22;37579;51.074;17.004;2022-07-29T05:37:08;25.80;45.50
39751;DHT22;37579;51.074;17.004;2022-07-29T05:39:33;25.80;45.50
39751;DHT22;37579;51.074;17.004;2022-07-29T05:41:59;25.80;45.50
39751;DHT22;37579;51.074;17.004;2022-07-29T05:44:25;25.90;45.50
39751;DHT22;37579;51.074;17.004;2022-07-29T05:46:50;25.90;45.50
39751;DHT22;37579;51.074;17.004;2022-07-29T05:49:16;25.80;45.50
39751;DHT22;37579;51.074;17.004;2022-07-29T05:51:42;25.80;45.50
39751;DHT22;37579;51.074;17.004;2022-07-29T05:54:08;25.80;45.50
39751;DHT22;37579;51.074;17.004;2022-07-29T05:56:35;25.80;45.60
39751;DHT22;37579;51.074;17.004;2022-07-29T05:59:02;25.90;45.70
39751;DHT22;37579;51.074;17.004;2022-07-29T06:01:27;25.90;45.70
39751;DHT22;37579;51.074;17.004;2022-07-29T06:03:53;25.90;45.70
39751;DHT22;37579;51.074;17.004;2022-07-29T06:06:19;25.90;45.70
39751;DHT22;37579;51.074;17.004;2022-07-29T06:08:45;25.90;45.70
39751;DHT22;37579;51.074;17.004;2022-07-29T06:11:10;25.80;45.60
39751;DHT22;37579;51.074;17.004;2022-07-29T06:13:36;25.90;46.40
39751;DHT22;37579;51.074;17.004;2022-07-29T06:16:02;25.90;45.70
39751;DHT22;37579;51.074;17.004;2022-07-29T06:18:28;26.00;45.70
39751;DHT22;37579;51.074;17.004;2022-07-29T06:20:54;26.00;45.70
39751;DHT22;37579;51.074;17.004;2022-07-29T06:23:20;26.00;45.70
39751;DHT22;37579;51.074;17.004;2022-07-29T06:25:46;26.00;45.70
39751;DHT22;37579;51.074;17.004;2022-07-29T06:28:12;26.00;45.80
39751;DHT22;37579;51.074;17.004;2022-07-29T06:30:39;26.00;45.80
39751;DHT22;37579;51.074;17.004;2022-07-29T06:33:05;26.00;45.80
39751;DHT22;37579;51.074;17.004;2022-07-29T06:35:33;26.10;46.00
39751;DHT22;37579;51.074;17.004;2022-07-29T06:38:00;26.10;46.40
39751;DHT22;37579;51.074;17.004;2022-07-29T06:40:26;26.10;46.80
39751;DHT22;37579;51.074;17.004;2022-07-29T06:43:11;26.10;47.00
39751;DHT22;37579;51.074;17.004;2022-07-29T06:45:37;26.00;47.00
39751;DHT22;37579;51.074;17.004;2022-07-29T06:48:06;26.00;47.00
39751;DHT22;37579;51.074;17.004;2022-07-29T06:50:32;26.00;47.10
39751;DHT22;37579;51.074;17.004;2022-07-29T06:52:57;26.00;47.30
39751;DHT22;37579;51.074;17.004;2022-07-29T06:55:23;26.00;47.30
39751;DHT22;37579;51.074;17.004;2022-07-29T06:57:50;26.00;47.30
39751;DHT22;37579;51.074;17.004;2022-07-29T07:00:16;26.10;47.10
39751;DHT22;37579;51.074;17.004;2022-07-29T07:02:42;26.10;47.00
39751;DHT22;37579;51.074;17.004;2022-07-29T07:05:08;26.00;47.10
39751;DHT22;37579;51.074;17.004;2022-07-29T07:07:34;26.00;47.00
39751;DHT22;37579;51.074;17.004;2022-07-29T07:10:00;26.00;47.00
39751;DHT22;37579;51.074;17.004;2022-07-29T07:12:25;26.00;47.00
39751;DHT22;37579;51.074;17.004;2022-07-29T07:14:51;26.00;46.90
39751;DHT22;37579;51.074;17.004;2022-07-29T07:17:17;26.00;46.70
39751;DHT22;37579;51.074;17.004;2022-07-29T07:19:42;26.10;46.80
39751;DHT22;37579;51.074;17.004;2022-07-29T07:22:08;26.10;46.60
39751;DHT22;37579;51.074;17.004;2022-07-29T07:24:34;26.10;46.70
39751;DHT22;37579;51.074;17.004;2022-07-29T07:27:00;26.10;46.80
39751;DHT22;37579;51.074;17.004;2022-07-29T07:29:25;26.10;46.70
39751;DHT22;37579;51.074;17.004;2022-07-29T07:31:51;26.10;46.90
39751;DHT22;37579;51.074;17.004;2022-07-29T07:34:17;26.10;47.00
39751;DHT22;37579;51.074;17.004;2022-07-29T07:36:42;26.10;47.00
39751;DHT22;37579;51.074;17.004;2022-07-29T07:39:08;26.10;47.00
39751;DHT22;37579;51.074;17.004;2022-07-29T07:41:34;26.10;47.10
39751;DHT22;37579;51.074;17.004;2022-07-29T07:44:00;26.10;47.00
39751;DHT22;37579;51.074;17.004;2022-07-29T07:46:26;26.10;46.90
39751;DHT22;37579;51.074;17.004;2022-07-29T07:48:51;26.10;46.90
39751;DHT22;37579;51.074;17.004;2022-07-29T07:51:18;26.10;46.80
39751;DHT22;37579;51.074;17.004;2022-07-29T07:53:44;26.10;46.70
39751;DHT22;37579;51.074;17.004;2022-07-29T07:56:10;26.10;46.60
39751;DHT22;37579;51.074;17.004;2022-07-29T07:58:36;26.10;46.60
39751;DHT22;37579;51.074;17.004;2022-07-29T08:01:02;26.20;46.60
39751;DHT22;37579;51.074;17.004;2022-07-29T08:03:28;26.20;46.80
39751;DHT22;37579;51.074;17.004;2022-07-29T08:05:53;26.20;46.70
39751;DHT22;37579;51.074;17.004;2022-07-29T08:08:19;26.20;46.60
39751;DHT22;37579;51.074;17.004;2022-07-29T08:10:46;26.30;46.60
39751;DHT22;37579;51.074;17.004;2022-07-29T08:13:18;26.20;46.60
39751;DHT22;37579;51.074;17.004;2022-07-29T08:15:45;26.30;46.80
39751;DHT22;37579;51.074;17.004;2022-07-29T08:18:14;26.30;46.60
39751;DHT22;37579;51.074;17.004;2022-07-29T08:20:40;26.20;46.70
39751;DHT22;37579;51.074;17.004;2022-07-29T08:23:07;26.20;46.70
39751;DHT22;37579;51.074;17.004;2022-07-29T08:25:36;26.20;46.70
39751;DHT22;37579;51.074;17.004;2022-07-29T08:28:04;26.20;46.70
39751;DHT22;37579;51.074;17.004;2022-07-29T08:30:29;26.20;46.80
39751;DHT22;37579;51.074;17.004;2022-07-29T08:32:55;26.20;46.70
39751;DHT22;37579;51.074;17.004;2022-07-29T08:35:23;26.20;46.70
39751;DHT22;37579;51.074;17.004;2022-07-29T08:37:50;26.30;46.80
39751;DHT22;37579;51.074;17.004;2022-07-29T08:40:16;26.30;46.80
39751;DHT22;37579;51.074;17.004;2022-07-29T08:42:41;26.30;46.80
39751;DHT22;37579;51.074;17.004;2022-07-29T08:45:08;26.30;46.70
39751;DHT22;37579;51.074;17.004;2022-07-29T08:47:34;26.30;46.70
39751;DHT22;37579;51.074;17.004;2022-07-29T08:50:05;26.40;47.00
39751;DHT22;37579;51.074;17.004;2022-07-29T08:52:38;26.40;46.60
39751;DHT22;37579;51.074;17.004;2022-07-29T08:55:08;26.40;46.70
39751;DHT22;37579;51.074;17.004;2022-07-29T08:57:36;26.40;46.90
39751;DHT22;37579;51.074;17.004;2022-07-29T09:00:05;26.40;46.70
39751;DHT22;37579;51.074;17.004;2022-07-29T09:02:36;26.40;47.10
39751;DHT22;37579;51.074;17.004;2022-07-29T09:05:05;26.50;46.90
39751;DHT22;37579;51.074;17.004;2022-07-29T09:07:31;26.40;46.70
39751;DHT22;37579;51.074;17.004;2022-07-29T09:09:58;26.40;46.70
39751;DHT22;37579;51.074;17.004;2022-07-29T09:12:24;26.40;47.00
39751;DHT22;37579;51.074;17.004;2022-07-29T09:14:50;26.40;47.20
39751;DHT22;37579;51.074;17.004;2022-07-29T09:17:16;26.30;47.30
39751;DHT22;37579;51.074;17.004;2022-07-29T09:19:43;26.30;47.30
39751;DHT22;37579;51.074;17.004;2022-07-29T09:22:09;26.30;47.30
39751;DHT22;37579;51.074;17.004;2022-07-29T09:24:38;26.30;47.50
39751;DHT22;37579;51.074;17.004;2022-07-29T09:29:42;26.40;47.60
39751;DHT22;37579;51.074;17.004;2022-07-29T09:32:09;26.30;47.50
39751;DHT22;37579;51.074;17.004;2022-07-29T09:34:36;26.30;47.50
39751;DHT22;37579;51.074;17.004;2022-07-29T09:37:02;26.30;47.50
39751;DHT22;37579;51.074;17.004;2022-07-29T09:39:38;26.30;47.50
39751;DHT22;37579;51.074;17.004;2022-07-29T09:42:11;26.30;47.50
39751;DHT22;37579;51.074;17.004;2022-07-29T09:44:44;26.30;47.70
39751;DHT22;37579;51.074;17.004;2022-07-29T09:47:10;26.40;47.80
39751;DHT22;37579;51.074;17.004;2022-07-29T09:49:51;26.40;47.50
39751;DHT22;37579;51.074;17.004;2022-07-29T09:52:17;26.40;47.70
39751;DHT22;37579;51.074;17.004;2022-07-29T09:54:44;26.40;47.40
39751;DHT22;37579;51.074;17.004;2022-07-29T09:57:23;26.40;47.70
39751;DHT22;37579;51.074;17.004;2022-07-29T10:00:04;26.40;48.20
39751;DHT22;37579;51.074;17.004;2022-07-29T10:02:39;26.40;47.30
39751;DHT22;37579;51.074;17.004;2022-07-29T10:05:17;26.40;47.60
39751;DHT22;37579;51.074;17.004;2022-07-29T10:07:46;26.40;47.70
39751;DHT22;37579;51.074;17.004;2022-07-29T10:10:19;26.40;47.70
39751;DHT22;37579;51.074;17.004;2022-07-29T10:12:51;26.30;47.70
39751;DHT22;37579;51.074;17.004;2022-07-29T10:15:17;26.30;47.70
39751;DHT22;37579;51.074;17.004;2022-07-29T10:17:44;26.30;48.40
39751;DHT22;37579;51.074;17.004;2022-07-29T10:20:10;26.30;47.70
39751;DHT22;37579;51.074;17.004;2022-07-29T10:22:36;26.30;47.70
39751;DHT22;37579;51.074;17.004;2022-07-29T10:25:03;26.30;47.80
39751;DHT22;37579;51.074;17.004;2022-07-29T10:27:28;26.30;47.80
39751;DHT22;37579;51.074;17.004;2022-07-29T10:29:54;26.30;47.80
39751;DHT22;37579;51.074;17.004;2022-07-29T10:32:39;26.30;47.70
39751;DHT22;37579;51.074;17.004;2022-07-29T10:41:21;26.30;47.80
39751;DHT22;37579;51.074;17.004;2022-07-29T10:43:58;26.30;47.80
39751;DHT22;37579;51.074;17.004;2022-07-29T10:46:25;26.30;47.80
39751;DHT22;37579;51.074;17.004;2022-07-29T10:49:18;26.30;47.80
39751;DHT22;37579;51.074;17.004;2022-07-29T10:54:18;26.40;47.90
39751;DHT22;37579;51.074;17.004;2022-07-29T10:56:44;26.30;48.00
39751;DHT22;37579;51.074;17.004;2022-07-29T11:01:46;26.30;47.80
39751;DHT22;37579;51.074;17.004;2022-07-29T11:04:12;26.30;48.10
39751;DHT22;37579;51.074;17.004;2022-07-29T11:07:06;26.30;48.20
39751;DHT22;37579;51.074;17.004;2022-07-29T11:09:33;26.30;48.20
39751;DHT22;37579;51.074;17.004;2022-07-29T11:11:59;26.30;48.00
39751;DHT22;37579;51.074;17.004;2022-07-29T11:17:22;26.30;47.60
39751;DHT22;37579;51.074;17.004;2022-07-29T11:19:47;26.30;47.60
39751;DHT22;37579;51.074;17.004;2022-07-29T11:22:35;26.40;47.80
39751;DHT22;37579;51.074;17.004;2022-07-29T11:25:17;26.40;48.30
39751;DHT22;37579;51.074;17.004;2022-07-29T11:27:46;26.40;49.10
39751;DHT22;37579;51.074;17.004;2022-07-29T11:30:12;26.40;49.40
39751;DHT22;37579;51.074;17.004;2022-07-29T11:32:40;26.40;49.30
39751;DHT22;37579;51.074;17.004;2022-07-29T11:35:23;26.40;49.50
39751;DHT22;37579;51.074;17.004;2022-07-29T11:38:27;26.40;50.00
39751;DHT22;37579;51.074;17.004;2022-07-29T11:41:22;26.40;50.10
39751;DHT22;37579;51.074;17.004;2022-07-29T11:43:58;26.40;50.10
39751;DHT22;37579;51.074;17.004;2022-07-29T11:46:47;26.40;50.00
39751;DHT22;37579;51.074;17.004;2022-07-29T11:49:22;26.50;50.10
39751;DHT22;37579;51.074;17.004;2022-07-29T11:51:52;26.50;49.70
39751;DHT22;37579;51.074;17.004;2022-07-29T11:54:30;26.50;50.30
39751;DHT22;37579;51.074;17.004;2022-07-29T11:56:58;26.50;50.10
39751;DHT22;37579;51.074;17.004;2022-07-29T11:59:24;26.50;49.50
39751;DHT22;37579;51.074;17.004;2022-07-29T12:01:57;26.50;50.00
39751;DHT22;37579;51.074;17.004;2022-07-29T12:04:24;26.50;50.00
39751;DHT22;37579;51.074;17.004;2022-07-29T12:06:50;26.60;50.30
39751;DHT22;37579;51.074;17.004;2022-07-29T12:09:17;26.60;50.20
39751;DHT22;37579;51.074;17.004;2022-07-29T12:11:43;26.60;50.20
39751;DHT22;37579;51.074;17.004;2022-07-29T12:14:09;26.60;50.10
39751;DHT22;37579;51.074;17.004;2022-07-29T12:16:35;26.60;50.10
39751;DHT22;37579;51.074;17.004;2022-07-29T12:19:03;26.60;50.10
39751;DHT22;37579;51.074;17.004;2022-07-29T12:21:43;26.60;50.20
39751;DHT22;37579;51.074;17.004;2022-07-29T12:24:08;26.60;50.20
39751;DHT22;37579;51.074;17.004;2022-07-29T12:26:35;26.60;50.20
39751;DHT22;37579;51.074;17.004;2022-07-29T12:29:02;26.70;50.40
39751;DHT22;37579;51.074;17.004;2022-07-29T12:31:28;26.60;50.30
39751;DHT22;37579;51.074;17.004;2022-07-29T12:33:54;26.60;50.30
39751;DHT22;37579;51.074;17.004;2022-07-29T12:36:20;26.60;50.50
39751;DHT22;37579;51.074;17.004;2022-07-29T12:38:46;26.50;50.50
39751;DHT22;37579;51.074;17.004;2022-07-29T12:41:12;26.60;49.60
39751;DHT22;37579;51.074;17.004;2022-07-29T12:43:52;26.60;48.40
39751;DHT22;37579;51.074;17.004;2022-07-29T12:46:18;26.60;46.00
39751;DHT22;37579;51.074;17.004;2022-07-29T12:48:43;26.50;46.00
39751;DHT22;37579;51.074;17.004;2022-07-29T12:51:10;26.50;45.80
39751;DHT22;37579;51.074;17.004;2022-07-29T12:53:38;26.40;45.50
39751;DHT22;37579;51.074;17.004;2022-07-29T12:56:04;26.30;45.90
39751;DHT22;37579;51.074;17.004;2022-07-29T13:01:15;26.20;45.70
39751;DHT22;37579;51.074;17.004;2022-07-29T13:06:31;26.30;46.30
39751;DHT22;37579;51.074;17.004;2022-07-29T13:09:08;26.40;45.80
39751;DHT22;37579;51.074;17.004;2022-07-29T13:11:40;26.40;45.80
39751;DHT22;37579;51.074;17.004;2022-07-29T13:14:08;26.40;45.80
39751;DHT22;37579;51.074;17.004;2022-07-29T13:16:35;26.40;45.80
39751;DHT22;37579;51.074;17.004;2022-07-29T13:19:09;26.40;45.90
39751;DHT22;37579;51.074;17.004;2022-07-29T13:21:36;26.40;46.00
39751;DHT22;37579;51.074;17.004;2022-07-29T13:24:03;26.40;45.80
39751;DHT22;37579;51.074;17.004;2022-07-29T13:26:29;26.40;46.00
39751;DHT22;37579;51.074;17.004;2022-07-29T13:28:54;26.40;45.80
39751;DHT22;37579;51.074;17.004;2022-07-29T13:31:20;26.40;46.00
39751;DHT22;37579;51.074;17.004;2022-07-29T13:33:47;26.40;46.00
39751;DHT22;37579;51.074;17.004;2022-07-29T13:36:13;26.40;45.90
39751;DHT22;37579;51.074;17.004;2022-07-29T13:38:39;26.40;46.00
39751;DHT22;37579;51.074;17.004;2022-07-29T13:41:05;26.40;46.20
39751;DHT22;37579;51.074;17.004;2022-07-29T13:43:30;26.40;46.20
39751;DHT22;37579;51.074;17.004;2022-07-29T13:45:56;26.40;46.30
39751;DHT22;37579;51.074;17.004;2022-07-29T13:48:22;26.40;46.20
39751;DHT22;37579;51.074;17.004;2022-07-29T13:50:48;26.40;46.20
39751;DHT22;37579;51.074;17.004;2022-07-29T13:53:14;26.40;46.10
39751;DHT22;37579;51.074;17.004;2022-07-29T13:55:40;26.40;46.30
39751;DHT22;37579;51.074;17.004;2022-07-29T13:58:05;26.40;46.20
39751;DHT22;37579;51.074;17.004;2022-07-29T14:00:31;26.40;46.30
39751;DHT22;37579;51.074;17.004;2022-07-29T14:02:57;26.40;46.30
39751;DHT22;37579;51.074;17.004;2022-07-29T14:05:22;26.40;46.40
39751;DHT22;37579;51.074;17.004;2022-07-29T14:07:48;26.40;46.50
39751;DHT22;37579;51.074;17.004;2022-07-29T14:10:14;26.40;46.50
39751;DHT22;37579;51.074;17.004;2022-07-29T14:12:40;26.40;46.50
39751;DHT22;37579;51.074;17.004;2022-07-29T14:15:07;26.50;46.70
39751;DHT22;37579;51.074;17.004;2022-07-29T14:17:34;26.40;46.70
39751;DHT22;37579;51.074;17.004;2022-07-29T14:20:00;26.50;46.80
39751;DHT22;37579;51.074;17.004;2022-07-29T14:22:25;26.40;46.70
39751;DHT22;37579;51.074;17.004;2022-07-29T14:24:51;26.40;47.00
39751;DHT22;37579;51.074;17.004;2022-07-29T14:27:17;26.40;46.70
39751;DHT22;37579;51.074;17.004;2022-07-29T14:29:43;26.50;47.50
39751;DHT22;37579;51.074;17.004;2022-07-29T14:32:09;26.40;46.80
39751;DHT22;37579;51.074;17.004;2022-07-29T14:34:36;26.50;46.80
39751;DHT22;37579;51.074;17.004;2022-07-29T14:37:03;26.40;46.80
39751;DHT22;37579;51.074;17.004;2022-07-29T14:39:31;26.40;46.80
39751;DHT22;37579;51.074;17.004;2022-07-29T14:41:56;26.50;46.80
39751;DHT22;37579;51.074;17.004;2022-07-29T14:44:22;26.50;46.80
39751;DHT22;37579;51.074;17.004;2022-07-29T14:46:49;26.50;46.90
39751;DHT22;37579;51.074;17.004;2022-07-29T14:49:15;26.50;46.80
39751;DHT22;37579;51.074;17.004;2022-07-29T14:51:40;26.50;46.80
39751;DHT22;37579;51.074;17.004;2022-07-29T14:54:07;26.60;46.80
39751;DHT22;37579;51.074;17.004;2022-07-29T14:56:32;26.60;46.80
39751;DHT22;37579;51.074;17.004;2022-07-29T14:58:58;26.60;46.80
39751;DHT22;37579;51.074;17.004;2022-07-29T15:01:24;26.60;46.70
39751;DHT22;37579;51.074;17.004;2022-07-29T15:03:51;26.60;46.80
39751;DHT22;37579;51.074;17.004;2022-07-29T15:06:17;26.70;46.70
39751;DHT22;37579;51.074;17.004;2022-07-29T15:08:42;26.70;46.90
39751;DHT22;37579;51.074;17.004;2022-07-29T15:11:08;26.70;46.80
39751;DHT22;37579;51.074;17.004;2022-07-29T15:13:34;26.70;46.70
39751;DHT22;37579;51.074;17.004;2022-07-29T15:16:00;26.70;46.80
39751;DHT22;37579;51.074;17.004;2022-07-29T15:18:26;26.70;46.70
39751;DHT22;37579;51.074;17.004;2022-07-29T15:20:52;26.70;46.90
39751;DHT22;37579;51.074;17.004;2022-07-29T15:23:17;26.80;46.80
39751;DHT22;37579;51.074;17.004;2022-07-29T15:25:43;26.70;47.00
39751;DHT22;37579;51.074;17.004;2022-07-29T15:28:09;26.80;46.60
39751;DHT22;37579;51.074;17.004;2022-07-29T15:30:35;26.80;46.30
39751;DHT22;37579;51.074;17.004;2022-07-29T15:33:07;26.80;46.30
39751;DHT22;37579;51.074;17.004;2022-07-29T15:35:34;26.80;46.40
39751;DHT22;37579;51.074;17.004;2022-07-29T15:38:00;26.80;46.40
39751;DHT22;37579;51.074;17.004;2022-07-29T15:40:27;26.90;46.50
39751;DHT22;37579;51.074;17.004;2022-07-29T15:42:52;26.90;46.50
39751;DHT22;37579;51.074;17.004;2022-07-29T15:45:18;26.80;46.60
39751;DHT22;37579;51.074;17.004;2022-07-29T15:47:44;26.90;46.70
39751;DHT22;37579;51.074;17.004;2022-07-29T15:50:09;26.80;46.70
39751;DHT22;37579;51.074;17.004;2022-07-29T15:52:40;26.80;46.70
39751;DHT22;37579;51.074;17.004;2022-07-29T15:55:06;26.80;46.70
39751;DHT22;37579;51.074;17.004;2022-07-29T15:57:32;26.80;47.40
39751;DHT22;37579;51.074;17.004;2022-07-29T15:59:58;26.80;46.80
39751;DHT22;37579;51.074;17.004;2022-07-29T16:02:24;26.80;46.90